createdAt,value
2023-04-11T00:00:37.785Z,99.99
2023-04-11T00:01:37.805Z,99.99
2023-04-11T00:02:37.999Z,99.99
2023-04-11T00:03:37.971Z,99.99
2023-04-11T00:04:37.803Z,99.99
2023-04-11T00:05:37.736Z,99.99
2023-04-11T00:06:37.721Z,99.99
2023-04-11T00:07:37.732Z,99.99
2023-04-11T00:08:37.726Z,99.99
2023-04-11T00:09:37.710Z,99.99
2023-04-11T00:10:37.700Z,99.99
2023-04-11T00:11:37.700Z,99.99
2023-04-11T00:12:37.689Z,99.99
2023-04-11T00:13:37.732Z,99.99
2023-04-11T00:14:37.745Z,99.99
2023-04-11T00:15:37.699Z,99.99
2023-04-11T00:16:37.723Z,99.99
2023-04-11T00:17:37.828Z,99.99
2023-04-11T00:18:37.650Z,99.99
2023-04-11T00:19:37.649Z,99.99
2023-04-11T00:20:37.628Z,99.99
2023-04-11T00:21:37.625Z,99.99
2023-04-11T00:22:37.619Z,99.99
2023-04-11T00:23:37.613Z,99.99
2023-04-11T00:24:37.606Z,99.99
2023-04-11T00:25:37.597Z,99.99
2023-04-11T00:26:37.632Z,99.99
2023-04-11T00:27:37.585Z,99.99
2023-04-11T00:28:37.584Z,99.99
2023-04-11T00:29:37.572Z,99.99
2023-04-11T00:30:37.567Z,99.99
2023-04-11T00:31:37.601Z,99.99
2023-04-11T00:32:37.604Z,99.99
2023-04-11T00:33:39.254Z,99.99
2023-04-11T00:34:37.539Z,99.99
2023-04-11T00:35:37.545Z,99.99
2023-04-11T00:36:37.626Z,99.99
2023-04-11T00:37:37.517Z,99.99
2023-04-11T00:38:37.509Z,99.99
2023-04-11T00:39:37.502Z,99.99
2023-04-11T00:40:37.492Z,99.99
2023-04-11T00:41:37.495Z,99.99
2023-04-11T00:42:37.476Z,99.99
2023-04-11T00:43:37.486Z,99.99
2023-04-11T00:44:37.464Z,99.99
2023-04-11T00:45:37.476Z,99.99
2023-04-11T00:46:37.457Z,99.99
2023-04-11T00:47:37.488Z,99.99
2023-04-11T00:48:37.453Z,99.99
2023-04-11T00:49:37.446Z,99.99
2023-04-11T00:50:37.430Z,99.99
2023-04-11T00:51:37.423Z,99.99
2023-04-11T00:52:37.416Z,99.99
2023-04-11T00:53:37.412Z,99.99
2023-04-11T00:54:37.403Z,99.99
2023-04-11T00:55:37.393Z,99.99
2023-04-11T00:56:37.390Z,99.99
2023-04-11T00:57:37.384Z,99.99
2023-04-11T00:58:37.375Z,99.99
2023-04-11T00:59:37.372Z,99.99
2023-04-11T01:00:37.360Z,99.99
2023-04-11T01:01:37.458Z,99.99
2023-04-11T01:02:37.448Z,99.99
2023-04-11T01:03:37.541Z,99.99
2023-04-11T01:04:37.343Z,99.99
2023-04-11T01:05:37.356Z,99.99
2023-04-11T01:06:37.323Z,99.99
2023-04-11T01:07:37.324Z,99.99
2023-04-11T01:08:37.308Z,99.99
2023-04-11T01:09:37.312Z,99.99
2023-04-11T01:10:37.297Z,99.99
2023-04-11T01:11:37.292Z,99.99
2023-04-11T01:12:37.291Z,99.99
2023-04-11T01:13:37.281Z,99.99
2023-04-11T01:14:37.274Z,99.99
2023-04-11T01:15:37.271Z,99.99
2023-04-11T01:16:37.293Z,99.99
2023-04-11T01:17:37.287Z,99.99
2023-04-11T01:18:37.241Z,99.99
2023-04-11T01:19:37.242Z,99.99
2023-04-11T01:20:37.238Z,99.99
2023-04-11T01:21:37.227Z,99.99
2023-04-11T01:22:37.233Z,99.99
2023-04-11T01:23:37.211Z,99.99
2023-04-11T01:24:37.210Z,99.99
2023-04-11T01:25:37.198Z,99.99
2023-04-11T01:26:37.197Z,99.99
2023-04-11T01:27:37.185Z,99.99
2023-04-11T01:28:37.178Z,99.99
2023-04-11T01:29:37.175Z,99.99
2023-04-11T01:30:37.172Z,99.99
2023-04-11T01:31:37.159Z,99.99
2023-04-11T01:32:37.189Z,99.99
2023-04-11T01:33:37.142Z,99.99
2023-04-11T01:34:37.147Z,99.99
2023-04-11T01:35:37.165Z,99.99
2023-04-11T01:36:37.128Z,99.99
2023-04-11T01:37:37.132Z,99.99
2023-04-11T01:38:37.110Z,99.99
2023-04-11T01:39:37.117Z,99.99
2023-04-11T01:40:37.096Z,99.99
2023-04-11T01:41:37.086Z,99.99
2023-04-11T01:42:37.086Z,99.99
2023-04-11T01:43:37.075Z,99.99
2023-04-11T01:44:37.069Z,99.99
2023-04-11T01:45:37.060Z,99.99
2023-04-11T01:46:37.060Z,99.99
2023-04-11T01:47:37.082Z,99.99
2023-04-11T01:48:37.117Z,99.99
2023-04-11T01:49:37.028Z,99.99
2023-04-11T01:50:37.030Z,99.99
2023-04-11T01:51:37.020Z,99.99
2023-04-11T01:52:37.011Z,99.99
2023-04-11T01:53:37.006Z,99.99
2023-04-11T01:54:37.000Z,99.99
2023-04-11T01:55:36.994Z,99.99
2023-04-11T01:56:36.986Z,99.99
2023-04-11T01:57:36.974Z,99.99
2023-04-11T01:58:36.973Z,99.99
2023-04-11T01:59:36.975Z,99.99
2023-04-11T02:00:36.969Z,99.99
2023-04-11T02:01:37.033Z,99.99
2023-04-11T02:02:37.048Z,99.99
2023-04-11T02:03:37.214Z,99.99
2023-04-11T02:04:36.943Z,99.99
2023-04-11T02:05:36.920Z,99.99
2023-04-11T02:06:36.913Z,99.99
2023-04-11T02:07:36.904Z,99.99
2023-04-11T02:08:36.897Z,99.99
2023-04-11T02:09:36.889Z,99.99
2023-04-11T02:10:36.885Z,99.99
2023-04-11T02:11:36.882Z,99.99
2023-04-11T02:12:36.880Z,99.99
2023-04-11T02:13:36.869Z,99.99
2023-04-11T02:14:36.855Z,99.99
2023-04-11T02:15:36.914Z,99.99
2023-04-11T02:16:36.840Z,99.99
2023-04-11T02:17:36.991Z,99.99
2023-04-11T02:18:36.833Z,99.99
2023-04-11T02:19:36.837Z,99.99
2023-04-11T02:20:36.815Z,99.99
2023-04-11T02:21:36.810Z,99.99
2023-04-11T02:22:36.800Z,99.99
2023-04-11T02:23:36.799Z,99.99
2023-04-11T02:24:36.787Z,99.99
2023-04-11T02:25:36.781Z,99.99
2023-04-11T02:26:36.773Z,99.99
2023-04-11T02:27:36.772Z,99.99
2023-04-11T02:28:36.791Z,99.99
2023-04-11T02:29:36.753Z,99.99
2023-04-11T02:30:36.767Z,99.99
2023-04-11T02:31:36.881Z,99.99
2023-04-11T02:32:36.762Z,99.99
2023-04-11T02:33:36.727Z,99.99
2023-04-11T02:34:36.717Z,99.99
2023-04-11T02:35:36.758Z,99.99
2023-04-11T02:36:36.711Z,99.99
2023-04-11T02:37:36.705Z,99.99
2023-04-11T02:38:36.690Z,99.99
2023-04-11T02:39:36.683Z,99.99
2023-04-11T02:40:36.689Z,99.99
2023-04-11T02:41:36.670Z,99.99
2023-04-11T02:42:36.662Z,99.99
2023-04-11T02:43:36.653Z,99.99
2023-04-11T02:44:36.660Z,99.99
2023-04-11T02:45:36.641Z,99.99
2023-04-11T02:46:36.727Z,99.99
2023-04-11T02:47:36.657Z,99.99
2023-04-11T02:48:36.622Z,99.99
2023-04-11T02:49:36.614Z,99.99
2023-04-11T02:50:36.618Z,99.99
2023-04-11T02:51:36.601Z,99.99
2023-04-11T02:52:36.592Z,99.99
2023-04-11T02:53:36.589Z,99.99
2023-04-11T02:54:36.583Z,99.99
2023-04-11T02:55:36.569Z,99.99
2023-04-11T02:56:36.561Z,99.99
2023-04-11T02:57:36.559Z,99.99
2023-04-11T02:58:36.544Z,99.99
2023-04-11T02:59:36.541Z,99.99
2023-04-11T03:00:36.543Z,99.99
2023-04-11T03:01:36.627Z,99.99
2023-04-11T03:02:36.661Z,99.99
2023-04-11T03:03:36.560Z,99.99
2023-04-11T03:04:36.580Z,99.99
2023-04-11T03:05:36.500Z,99.99
2023-04-11T03:06:36.496Z,99.99
2023-04-11T03:07:36.484Z,99.99
2023-04-11T03:08:36.481Z,99.99
2023-04-11T03:09:36.477Z,99.99
2023-04-11T03:10:36.467Z,99.99
2023-04-11T03:11:36.455Z,99.99
2023-04-11T03:12:36.446Z,99.99
2023-04-11T03:13:36.444Z,99.99
2023-04-11T03:14:36.437Z,99.99
2023-04-11T03:15:36.531Z,99.99
2023-04-11T03:16:36.426Z,99.99
2023-04-11T03:17:36.445Z,99.99
2023-04-11T03:18:36.404Z,99.99
2023-04-11T03:19:36.405Z,99.99
2023-04-11T03:20:36.395Z,99.99
2023-04-11T03:21:36.386Z,99.99
2023-04-11T03:22:36.381Z,99.99
2023-04-11T03:23:36.370Z,99.99
2023-04-11T03:24:36.368Z,99.99
2023-04-11T03:25:36.359Z,99.99
2023-04-11T03:26:36.355Z,99.99
2023-04-11T03:27:36.347Z,99.99
2023-04-11T03:28:36.336Z,99.99
2023-04-11T03:29:36.335Z,99.99
2023-04-11T03:30:36.325Z,99.99
2023-04-11T03:31:36.337Z,99.99
2023-04-11T03:32:36.341Z,99.99
2023-04-11T03:33:36.308Z,99.99
2023-04-11T03:34:36.297Z,99.99
2023-04-11T03:35:36.361Z,99.99
2023-04-11T03:36:36.277Z,99.99
2023-04-11T03:37:36.277Z,99.99
2023-04-11T03:38:36.264Z,99.99
2023-04-11T03:39:36.267Z,99.99
2023-04-11T03:40:36.256Z,99.99
2023-04-11T03:41:36.252Z,99.99
2023-04-11T03:42:36.245Z,99.99
2023-04-11T03:43:36.252Z,99.99
2023-04-11T03:44:36.226Z,99.99
2023-04-11T03:45:36.234Z,99.99
2023-04-11T03:46:36.234Z,99.99
2023-04-11T03:47:36.215Z,99.99
2023-04-11T03:48:36.224Z,99.99
2023-04-11T03:49:36.193Z,99.99
2023-04-11T03:50:36.182Z,99.99
2023-04-11T03:51:36.171Z,99.99
2023-04-11T03:52:36.175Z,99.99
2023-04-11T03:53:36.160Z,99.99
2023-04-11T03:54:36.152Z,99.99
2023-04-11T03:55:36.150Z,99.99
2023-04-11T03:56:36.137Z,99.99
2023-04-11T03:57:36.133Z,99.99
2023-04-11T03:58:36.170Z,99.99
2023-04-11T03:59:36.109Z,99.99
2023-04-11T04:00:36.108Z,99.99
2023-04-11T04:01:36.160Z,99.99
2023-04-11T04:02:36.199Z,99.99
2023-04-11T04:03:36.318Z,99.99
2023-04-11T04:04:36.127Z,99.99
2023-04-11T04:05:36.074Z,99.99
2023-04-11T04:06:36.070Z,99.99
2023-04-11T04:07:36.051Z,99.99
2023-04-11T04:08:36.053Z,99.99
2023-04-11T04:09:36.043Z,99.99
2023-04-11T04:10:36.035Z,99.99
2023-04-11T04:11:36.023Z,99.99
2023-04-11T04:12:36.020Z,99.99
2023-04-11T04:13:36.015Z,99.99
2023-04-11T04:14:35.999Z,99.99
2023-04-11T04:15:35.995Z,99.99
2023-04-11T04:16:36.062Z,99.99
2023-04-11T04:17:36.000Z,99.99
2023-04-11T04:18:35.973Z,99.99
2023-04-11T04:19:35.981Z,99.99
2023-04-11T04:20:35.964Z,99.99
2023-04-11T04:21:35.953Z,99.99
2023-04-11T04:22:35.946Z,99.99
2023-04-11T04:23:35.937Z,99.99
2023-04-11T04:24:35.929Z,99.99
2023-04-11T04:25:35.927Z,99.99
2023-04-11T04:26:35.921Z,99.99
2023-04-11T04:27:35.910Z,99.99
2023-04-11T04:28:35.912Z,99.99
2023-04-11T04:29:35.895Z,99.99
2023-04-11T04:30:35.888Z,99.99
2023-04-11T04:31:35.941Z,99.99
2023-04-11T04:32:35.899Z,99.99
2023-04-11T04:33:35.889Z,99.99
2023-04-11T04:34:35.865Z,99.99
2023-04-11T04:35:35.895Z,99.99
2023-04-11T04:36:35.850Z,99.99
2023-04-11T04:37:35.838Z,99.99
2023-04-11T04:38:35.837Z,99.99
2023-04-11T04:39:35.837Z,99.99
2023-04-11T04:40:35.813Z,99.99
2023-04-11T04:41:35.814Z,99.99
2023-04-11T04:42:35.800Z,99.99
2023-04-11T04:43:35.793Z,99.99
2023-04-11T04:44:35.795Z,99.99
2023-04-11T04:45:35.795Z,99.99
2023-04-11T04:46:35.773Z,99.99
2023-04-11T04:47:35.817Z,99.99
2023-04-11T04:48:35.755Z,99.99
2023-04-11T04:49:35.755Z,99.99
2023-04-11T04:50:35.752Z,99.99
2023-04-11T04:51:35.735Z,99.99
2023-04-11T04:52:35.740Z,99.99
2023-04-11T04:53:35.724Z,99.99
2023-04-11T04:54:35.717Z,99.99
2023-04-11T04:55:35.710Z,99.99
2023-04-11T04:56:35.706Z,99.99
2023-04-11T04:57:35.705Z,99.99
2023-04-11T04:58:35.681Z,99.99
2023-04-11T04:59:35.683Z,99.99
2023-04-11T05:00:35.680Z,99.99
2023-04-11T05:01:35.737Z,99.99
2023-04-11T05:02:35.751Z,99.99
2023-04-11T05:03:35.753Z,99.99
2023-04-11T05:04:35.647Z,99.99
2023-04-11T05:05:35.646Z,99.99
2023-04-11T05:06:35.627Z,99.99
2023-04-11T05:07:35.630Z,99.99
2023-04-11T05:08:35.618Z,99.99
2023-04-11T05:09:35.614Z,99.99
2023-04-11T05:10:35.597Z,99.99
2023-04-11T05:11:35.595Z,99.99
2023-04-11T05:12:35.618Z,99.99
2023-04-11T05:13:35.586Z,99.99
2023-04-11T05:14:35.573Z,99.99
2023-04-11T05:15:35.565Z,99.99
2023-04-11T05:16:35.567Z,99.99
2023-04-11T05:17:35.565Z,99.99
2023-04-11T05:18:35.549Z,99.99
2023-04-11T05:19:35.536Z,99.99
2023-04-11T05:20:35.530Z,99.99
2023-04-11T05:21:35.519Z,99.99
2023-04-11T05:22:35.515Z,99.99
2023-04-11T05:23:35.513Z,99.99
2023-04-11T05:24:35.507Z,99.99
2023-04-11T05:25:35.491Z,99.99
2023-04-11T05:26:35.495Z,99.99
2023-04-11T05:27:35.480Z,99.99
2023-04-11T05:28:35.473Z,99.99
2023-04-11T05:29:35.474Z,99.99
2023-04-11T05:30:35.503Z,99.99
2023-04-11T05:31:35.458Z,99.99
2023-04-11T05:32:35.476Z,99.99
2023-04-11T05:33:35.443Z,99.99
2023-04-11T05:34:35.429Z,99.99
2023-04-11T05:35:35.490Z,99.99
2023-04-11T05:36:35.417Z,99.99
2023-04-11T05:37:35.420Z,99.99
2023-04-11T05:38:35.409Z,99.99
2023-04-11T05:39:35.394Z,99.99
2023-04-11T05:40:35.395Z,99.99
2023-04-11T05:41:35.394Z,99.99
2023-04-11T05:42:35.377Z,99.99
2023-04-11T05:43:35.369Z,99.99
2023-04-11T05:44:35.359Z,99.99
2023-04-11T05:45:35.354Z,99.99
2023-04-11T05:46:35.376Z,99.99
2023-04-11T05:47:35.422Z,99.99
2023-04-11T05:48:35.329Z,99.99
2023-04-11T05:49:35.321Z,99.99
2023-04-11T05:50:35.312Z,99.99
2023-04-11T05:51:35.318Z,99.99
2023-04-11T05:52:35.308Z,99.99
2023-04-11T05:53:35.302Z,99.99
2023-04-11T05:54:35.310Z,99.99
2023-04-11T05:55:35.281Z,99.99
2023-04-11T05:56:35.284Z,99.99
2023-04-11T05:57:35.270Z,99.99
2023-04-11T05:58:35.263Z,99.99
2023-04-11T05:59:35.250Z,99.99
2023-04-11T06:00:35.253Z,99.99
2023-04-11T06:01:35.236Z,99.99
2023-04-11T06:02:35.294Z,99.99
2023-04-11T06:03:35.439Z,99.99
2023-04-11T06:04:35.366Z,99.99
2023-04-11T06:05:35.210Z,99.99
2023-04-11T06:06:35.202Z,99.99
2023-04-11T06:07:35.195Z,99.99
2023-04-11T06:08:35.185Z,99.99
2023-04-11T06:09:35.186Z,99.99
2023-04-11T06:10:35.168Z,99.99
2023-04-11T06:11:35.166Z,99.99
2023-04-11T06:12:35.164Z,99.99
2023-04-11T06:13:35.196Z,99.99
2023-04-11T06:14:35.147Z,99.99
2023-04-11T06:15:35.168Z,99.99
2023-04-11T06:16:35.126Z,99.99
2023-04-11T06:17:35.172Z,99.99
2023-04-11T06:18:35.114Z,99.99
2023-04-11T06:19:35.117Z,99.99
2023-04-11T06:20:35.115Z,99.99
2023-04-11T06:21:35.105Z,99.99
2023-04-11T06:22:35.083Z,99.99
2023-04-11T06:23:35.086Z,99.99
2023-04-11T06:24:35.068Z,99.99
2023-04-11T06:25:35.069Z,99.99
2023-04-11T06:26:35.069Z,99.99
2023-04-11T06:27:35.049Z,99.99
2023-04-11T06:28:35.052Z,99.99
2023-04-11T06:29:35.041Z,99.99
2023-04-11T06:30:35.034Z,99.99
2023-04-11T06:31:35.050Z,99.99
2023-04-11T06:32:35.046Z,99.99
2023-04-11T06:33:35.010Z,99.99
2023-04-11T06:34:35.019Z,99.99
2023-04-11T06:35:35.033Z,99.99
2023-04-11T06:36:34.992Z,99.99
2023-04-11T06:37:35.004Z,99.99
2023-04-11T06:38:34.983Z,99.99
2023-04-11T06:39:34.975Z,99.99
2023-04-11T06:40:34.965Z,99.99
2023-04-11T06:41:34.982Z,99.99
2023-04-11T06:42:34.956Z,99.99
2023-04-11T06:43:34.967Z,99.99
2023-04-11T06:44:35.022Z,99.99
2023-04-11T06:45:34.956Z,99.99
2023-04-11T06:46:34.976Z,99.99
2023-04-11T06:47:34.951Z,99.99
2023-04-11T06:48:34.933Z,99.99
2023-04-11T06:49:34.904Z,99.99
2023-04-11T06:50:34.893Z,99.99
2023-04-11T06:51:34.916Z,99.99
2023-04-11T06:52:34.892Z,99.99
2023-04-11T06:53:34.873Z,99.99
2023-04-11T06:54:34.875Z,99.99
2023-04-11T06:55:34.859Z,99.99
2023-04-11T06:56:34.852Z,99.99
2023-04-11T06:57:34.850Z,99.99
2023-04-11T06:58:34.841Z,99.99
2023-04-11T06:59:34.863Z,99.99
2023-04-11T07:00:34.846Z,99.99
2023-04-11T07:01:34.864Z,99.99
2023-04-11T07:02:34.944Z,99.99
2023-04-11T07:03:34.909Z,99.99
2023-04-11T07:04:34.877Z,99.99
2023-04-11T07:05:34.793Z,99.99
2023-04-11T07:06:34.780Z,99.99
2023-04-11T07:07:34.773Z,99.99
2023-04-11T07:08:34.773Z,99.99
2023-04-11T07:09:34.765Z,99.99
2023-04-11T07:10:34.757Z,99.99
2023-04-11T07:11:34.751Z,99.99
2023-04-11T07:12:34.740Z,99.99
2023-04-11T07:13:34.738Z,99.99
2023-04-11T07:14:34.732Z,99.99
2023-04-11T07:15:34.730Z,99.99
2023-04-11T07:16:34.773Z,99.99
2023-04-11T07:17:34.754Z,99.99
2023-04-11T07:18:34.703Z,99.99
2023-04-11T07:19:34.703Z,99.99
2023-04-11T07:20:34.688Z,99.99
2023-04-11T07:21:34.706Z,99.99
2023-04-11T07:22:34.678Z,99.99
2023-04-11T07:23:34.663Z,99.99
2023-04-11T07:24:34.662Z,99.99
2023-04-11T07:25:34.654Z,99.99
2023-04-11T07:26:34.647Z,99.99
2023-04-11T07:27:34.642Z,99.99
2023-04-11T07:28:34.635Z,99.99
2023-04-11T07:29:34.634Z,99.99
2023-04-11T07:30:34.622Z,99.99
2023-04-11T07:31:34.623Z,99.99
2023-04-11T07:32:34.628Z,99.99
2023-04-11T07:33:34.608Z,99.99
2023-04-11T07:34:34.606Z,99.99
2023-04-11T07:35:34.669Z,99.99
2023-04-11T07:36:34.585Z,99.99
2023-04-11T07:37:34.575Z,99.99
2023-04-11T07:38:34.556Z,99.99
2023-04-11T07:39:34.557Z,99.99
2023-04-11T07:40:34.553Z,99.99
2023-04-11T07:41:34.546Z,99.99
2023-04-11T07:42:34.534Z,99.99
2023-04-11T07:43:34.530Z,99.99
2023-04-11T07:44:34.526Z,99.99
2023-04-11T07:45:34.557Z,99.99
2023-04-11T07:46:34.514Z,99.99
2023-04-11T07:47:34.566Z,99.99
2023-04-11T07:48:34.499Z,99.99
2023-04-11T07:49:34.488Z,99.99
2023-04-11T07:50:34.496Z,99.99
2023-04-11T07:51:34.472Z,99.99
2023-04-11T07:52:34.468Z,99.99
2023-04-11T07:53:34.476Z,99.99
2023-04-11T07:54:34.457Z,99.99
2023-04-11T07:55:34.450Z,99.99
2023-04-11T07:56:34.442Z,99.99
2023-04-11T07:57:34.432Z,99.99
2023-04-11T07:58:34.431Z,99.99
2023-04-11T07:59:34.422Z,99.99
2023-04-11T08:00:34.414Z,99.99
2023-04-11T08:01:34.405Z,99.99
2023-04-11T08:02:34.483Z,99.99
2023-04-11T08:03:34.538Z,99.99
2023-04-11T08:04:34.780Z,99.99
2023-04-11T08:05:34.426Z,99.99
2023-04-11T08:06:34.366Z,99.99
2023-04-11T08:07:34.374Z,99.99
2023-04-11T08:08:34.372Z,99.99
2023-04-11T08:09:34.363Z,99.99
2023-04-11T08:10:34.364Z,99.99
2023-04-11T08:11:34.342Z,99.99
2023-04-11T08:12:34.337Z,99.99
2023-04-11T08:13:34.326Z,99.99
2023-04-11T08:14:34.333Z,99.99
2023-04-11T08:15:34.313Z,99.99
2023-04-11T08:16:34.419Z,99.99
2023-04-11T08:17:34.418Z,99.99
2023-04-11T08:18:34.295Z,99.99
2023-04-11T08:19:34.293Z,99.99
2023-04-11T08:20:34.286Z,99.99
2023-04-11T08:21:34.277Z,99.99
2023-04-11T08:22:34.292Z,99.99
2023-04-11T08:23:34.279Z,99.99
2023-04-11T08:24:34.259Z,99.99
2023-04-11T08:25:34.258Z,99.99
2023-04-11T08:26:34.244Z,99.99
2023-04-11T08:27:34.241Z,99.99
2023-04-11T08:28:34.235Z,99.99
2023-04-11T08:29:34.225Z,99.99
2023-04-11T08:30:34.250Z,99.99
2023-04-11T08:31:34.237Z,99.99
2023-04-11T08:32:34.232Z,99.99
2023-04-11T08:33:34.200Z,99.99
2023-04-11T08:34:34.194Z,99.99
2023-04-11T08:35:34.204Z,99.66
2023-04-11T08:36:34.191Z,99.76
2023-04-11T08:37:34.178Z,99.99
2023-04-11T08:38:34.169Z,99.99
2023-04-11T08:39:34.169Z,99.99
2023-04-11T08:40:34.159Z,99.66
2023-04-11T08:41:34.142Z,99.57
2023-04-11T08:42:34.152Z,99.57
2023-04-11T08:43:34.139Z,98.52
2023-04-11T08:44:34.134Z,98.66
2023-04-11T08:45:34.117Z,97.89
2023-04-11T08:46:34.291Z,97.71
2023-04-11T08:47:34.137Z,97.51
2023-04-11T08:48:34.104Z,97.61
2023-04-11T08:49:34.093Z,97.51
2023-04-11T08:50:34.091Z,97.61
2023-04-11T08:51:34.084Z,97.99
2023-04-11T08:52:34.101Z,98.27
2023-04-11T08:53:34.068Z,97.71
2023-04-11T08:54:34.064Z,97.89
2023-04-11T08:55:34.066Z,98.08
2023-04-11T08:56:34.075Z,99.28
2023-04-11T08:57:34.078Z,97.75
2023-04-11T08:58:34.037Z,96.70
2023-04-11T08:59:34.047Z,97.27
2023-04-11T09:00:34.245Z,96.32
2023-04-11T09:01:34.157Z,94.89
2023-04-11T09:02:34.165Z,94.89
2023-04-11T09:03:34.051Z,93.93
2023-04-11T09:04:34.060Z,93.84
2023-04-11T09:05:34.012Z,92.02
2023-04-11T09:06:33.991Z,91.16
2023-04-11T09:07:33.986Z,90.97
2023-04-11T09:08:33.989Z,90.88
2023-04-11T09:09:33.967Z,90.97
2023-04-11T09:10:33.977Z,91.16
2023-04-11T09:11:33.960Z,90.40
2023-04-11T09:12:33.962Z,91.45
2023-04-11T09:13:33.958Z,92.41
2023-04-11T09:14:34.167Z,92.60
2023-04-11T09:15:33.956Z,91.64
2023-04-11T09:16:33.935Z,90.88
2023-04-11T09:17:33.938Z,90.92
2023-04-11T09:18:33.925Z,92.64
2023-04-11T09:19:33.933Z,92.64
2023-04-11T09:20:33.915Z,93.41
2023-04-11T09:21:33.904Z,92.83
2023-04-11T09:22:33.895Z,92.30
2023-04-11T09:23:33.890Z,93.07
2023-04-11T09:24:35.594Z,92.30
2023-04-11T09:25:33.903Z,92.11
2023-04-11T09:26:33.879Z,90.92
2023-04-11T09:27:33.874Z,90.35
2023-04-11T09:28:33.861Z,90.25
2023-04-11T09:29:33.859Z,90.83
2023-04-11T09:30:33.849Z,90.35
2023-04-11T09:31:33.892Z,90.83
2023-04-11T09:32:34.019Z,91.40
2023-04-11T09:33:33.836Z,91.69
2023-04-11T09:34:33.831Z,91.40
2023-04-11T09:35:33.825Z,91.59
2023-04-11T09:36:33.824Z,89.59
2023-04-11T09:37:33.811Z,88.30
2023-04-11T09:38:33.837Z,88.01
2023-04-11T09:39:33.809Z,86.49
2023-04-11T09:40:33.802Z,86.53
2023-04-11T09:41:33.794Z,86.43
2023-04-11T09:42:33.781Z,87.39
2023-04-11T09:43:33.789Z,87.24
2023-04-11T09:44:33.777Z,87.05
2023-04-11T09:45:40.832Z,87.48
2023-04-11T09:46:33.817Z,85.94
2023-04-11T09:47:33.780Z,85.32
2023-04-11T09:48:45.907Z,84.36
2023-04-11T09:49:33.745Z,84.75
2023-04-11T09:50:33.744Z,83.50
2023-04-11T09:51:37.050Z,83.50
2023-04-11T09:52:33.735Z,83.89
2023-04-11T09:53:33.732Z,84.46
2023-04-11T09:54:33.722Z,84.46
2023-04-11T09:55:33.722Z,84.12
2023-04-11T09:56:33.716Z,84.02
2023-04-11T09:57:33.704Z,83.30
2023-04-11T09:58:33.701Z,82.82
2023-04-11T09:59:33.705Z,81.57
2023-04-11T10:00:33.690Z,80.38
2023-04-11T10:01:33.761Z,81.34
2023-04-11T10:02:33.895Z,81.15
2023-04-11T10:03:33.777Z,79.87
2023-04-11T10:04:33.724Z,79.49
2023-04-11T10:05:33.674Z,80.92
2023-04-11T10:06:33.709Z,81.25
2023-04-11T10:07:33.662Z,79.91
2023-04-11T10:08:33.669Z,79.62
2023-04-11T10:09:33.660Z,80.43
2023-04-11T10:10:33.667Z,80.47
2023-04-11T10:11:33.651Z,80.18
2023-04-11T10:12:33.657Z,79.32
2023-04-11T10:13:33.645Z,78.36
2023-04-11T10:14:33.642Z,76.79
2023-04-11T10:15:33.642Z,76.89
2023-04-11T10:16:33.646Z,77.31
2023-04-11T10:17:33.658Z,77.17
2023-04-11T10:18:33.643Z,76.89
2023-04-11T10:19:33.623Z,77.46
2023-04-11T10:20:33.629Z,78.03
2023-04-11T10:21:33.628Z,77.17
2023-04-11T10:22:33.620Z,77.75
2023-04-11T10:23:33.616Z,77.84
2023-04-11T10:24:33.620Z,77.84
2023-04-11T10:25:33.613Z,78.22
2023-04-11T10:26:33.605Z,79.13
2023-04-11T10:27:33.605Z,78.69
2023-04-11T10:28:33.608Z,76.35
2023-04-11T10:29:33.631Z,76.54
2023-04-11T10:30:33.602Z,76.73
2023-04-11T10:31:33.644Z,76.98
2023-04-11T10:32:33.630Z,77.75
2023-04-11T10:33:33.589Z,78.22
2023-04-11T10:34:33.590Z,77.75
2023-04-11T10:35:33.616Z,78.03
2023-04-11T10:36:33.583Z,78.61
2023-04-11T10:37:33.607Z,77.21
2023-04-11T10:38:33.578Z,76.82
2023-04-11T10:39:33.568Z,77.06
2023-04-11T10:40:33.575Z,76.86
2023-04-11T10:41:33.571Z,75.56
2023-04-11T10:42:33.576Z,74.89
2023-04-11T10:43:33.570Z,74.22
2023-04-11T10:44:33.568Z,74.18
2023-04-11T10:45:33.564Z,73.32
2023-04-11T10:46:33.627Z,72.45
2023-04-11T10:47:33.568Z,73.65
2023-04-11T10:48:33.557Z,74.41
2023-04-11T10:49:33.565Z,73.20
2023-04-11T10:50:33.567Z,73.77
2023-04-11T10:51:33.569Z,72.20
2023-04-11T10:52:33.558Z,72.68
2023-04-11T10:53:33.549Z,71.40
2023-04-11T10:54:33.554Z,71.50
2023-04-11T10:55:33.546Z,72.23
2023-04-11T10:56:33.554Z,72.23
2023-04-11T10:57:33.546Z,71.84
2023-04-11T10:58:33.549Z,72.03
2023-04-11T10:59:33.542Z,72.42
2023-04-11T11:00:35.119Z,71.66
2023-04-11T11:01:42.732Z,71.81
2023-04-11T11:02:33.656Z,72.58
2023-04-11T11:03:33.755Z,71.46
2023-04-11T11:04:33.720Z,72.13
2023-04-11T11:05:33.531Z,72.64
2023-04-11T11:06:34.804Z,72.07
2023-04-11T11:07:33.542Z,71.11
2023-04-11T11:08:33.525Z,71.08
2023-04-11T11:09:33.526Z,71.08
2023-04-11T11:10:33.519Z,71.75
2023-04-11T11:11:33.516Z,71.94
2023-04-11T11:12:33.527Z,71.81
2023-04-11T11:13:33.516Z,71.52
2023-04-11T11:14:33.513Z,72.09
2023-04-11T11:15:33.511Z,71.81
2023-04-11T11:16:33.510Z,71.87
2023-04-11T11:17:33.543Z,73.21
2023-04-11T11:18:33.533Z,73.54
2023-04-11T11:19:33.505Z,72.29
2023-04-11T11:20:33.496Z,72.00
2023-04-11T11:21:33.493Z,72.99
2023-04-11T11:22:33.497Z,72.55
2023-04-11T11:23:34.902Z,71.59
2023-04-11T11:24:33.489Z,71.59
2023-04-11T11:25:33.486Z,71.78
2023-04-11T11:26:33.478Z,72.27
2023-04-11T11:27:33.477Z,73.83
2023-04-11T11:28:33.496Z,72.97
2023-04-11T11:29:33.483Z,71.72
2023-04-11T11:30:33.477Z,72.01
2023-04-11T11:31:33.490Z,72.88
2023-04-11T11:32:33.498Z,72.64
2023-04-11T11:33:33.463Z,72.20
2023-04-11T11:34:33.479Z,73.26
2023-04-11T11:35:33.480Z,71.72
2023-04-11T11:36:33.480Z,72.11
2023-04-11T11:37:33.465Z,72.97
2023-04-11T11:38:33.462Z,71.63
2023-04-11T11:39:33.460Z,70.64
2023-04-11T11:40:33.460Z,70.54
2023-04-11T11:41:33.464Z,71.50
2023-04-11T11:42:33.454Z,71.56
2023-04-11T11:43:33.452Z,71.56
2023-04-11T11:44:33.451Z,71.42
2023-04-11T11:45:33.461Z,71.62
2023-04-11T11:46:33.492Z,71.33
2023-04-11T11:47:33.453Z,71.52
2023-04-11T11:48:33.451Z,71.91
2023-04-11T11:49:33.456Z,71.71
2023-04-11T11:50:33.457Z,70.18
2023-04-11T11:51:33.448Z,69.80
2023-04-11T11:52:33.555Z,71.46
2023-04-11T11:53:33.447Z,70.03
2023-04-11T11:54:33.431Z,68.87
2023-04-11T11:55:33.439Z,71.27
2023-04-11T11:56:33.434Z,71.84
2023-04-11T11:57:33.427Z,70.92
2023-04-11T11:58:33.439Z,69.93
2023-04-11T11:59:33.425Z,69.64
2023-04-11T12:00:33.429Z,68.49
2023-04-11T12:01:33.420Z,68.74
2023-04-11T12:02:33.581Z,68.17
2023-04-11T12:03:33.516Z,68.62
2023-04-11T12:04:33.612Z,69.80
2023-04-11T12:05:33.441Z,70.47
2023-04-11T12:06:33.394Z,71.42
2023-04-11T12:07:33.433Z,71.91
2023-04-11T12:08:33.394Z,70.85
2023-04-11T12:09:33.377Z,71.04
2023-04-11T12:10:33.398Z,71.37
2023-04-11T12:11:33.377Z,72.32
2023-04-11T12:12:33.379Z,72.94
2023-04-11T12:13:33.380Z,70.54
2023-04-11T12:14:33.372Z,69.96
2023-04-11T12:15:33.394Z,70.73
2023-04-11T12:16:33.379Z,71.31
2023-04-11T12:17:35.314Z,68.81
2023-04-11T12:18:33.353Z,68.05
2023-04-11T12:19:33.349Z,65.94
2023-04-11T12:20:33.345Z,65.91
2023-04-11T12:21:33.339Z,67.15
2023-04-11T12:22:33.336Z,67.91
2023-04-11T12:23:33.329Z,68.49
2023-04-11T12:24:33.328Z,69.74
2023-04-11T12:25:33.331Z,71.08
2023-04-11T12:26:33.337Z,72.13
2023-04-11T12:27:33.328Z,73.99
2023-04-11T12:28:33.314Z,72.07
2023-04-11T12:29:33.339Z,71.08
2023-04-11T12:30:33.306Z,71.11
2023-04-11T12:31:33.331Z,71.11
2023-04-11T12:32:33.327Z,70.44
2023-04-11T12:33:33.290Z,70.96
2023-04-11T12:34:33.293Z,69.52
2023-04-11T12:35:33.289Z,68.08
2023-04-11T12:37:33.277Z,67.22
2023-04-11T12:38:33.277Z,67.41
2023-04-11T12:39:33.273Z,67.09
2023-04-11T12:40:33.262Z,67.32
2023-04-11T12:41:33.265Z,67.28
2023-04-11T12:43:33.251Z,67.18
2023-04-11T12:44:33.246Z,68.72
2023-04-11T12:45:33.241Z,67.66
2023-04-11T12:46:33.252Z,67.38
2023-04-11T12:47:33.260Z,65.81
2023-04-11T12:48:33.250Z,66.13
2023-04-11T12:49:33.232Z,66.48
2023-04-11T12:50:33.220Z,66.58
2023-04-11T12:51:33.224Z,66.58
2023-04-11T12:52:33.213Z,65.52
2023-04-11T12:53:33.213Z,65.71
2023-04-11T12:54:33.203Z,65.62